createdAt,value
2023-01-04T00:07:40.969Z,-0.07
2023-01-04T00:17:41.004Z,-0.25
2023-01-04T00:27:41.007Z,-0.21
2023-01-04T00:37:41.016Z,-0.49
2023-01-04T00:47:41.010Z,-0.6
2023-01-04T00:57:41.035Z,-0.71
2023-01-04T01:07:41.025Z,-0.71
2023-01-04T01:17:41.138Z,-0.85
2023-01-04T01:27:41.087Z,-0.89
2023-01-04T01:37:41.051Z,-0.86
2023-01-04T01:47:41.047Z,-0.75
2023-01-04T01:57:41.093Z,-0.79
2023-01-04T02:07:41.040Z,-0.62
2023-01-04T02:17:41.086Z,-0.62
2023-01-04T02:27:41.079Z,-0.35
2023-01-04T02:37:41.188Z,-0.29
2023-01-04T02:47:41.083Z,-0.18
2023-01-04T02:57:41.123Z,0
2023-01-04T03:07:41.127Z,0.12
2023-01-04T03:17:41.179Z,0.21
2023-01-04T03:27:41.143Z,0.26
2023-01-04T03:37:41.111Z,0.26
2023-01-04T03:47:41.128Z,0.24
2023-01-04T03:57:41.189Z,0.27
2023-01-04T04:07:41.143Z,0.16
2023-01-04T04:17:41.239Z,0.02
2023-01-04T04:27:41.143Z,-0.07
2023-01-04T04:37:41.168Z,-0.01
2023-01-04T04:47:41.129Z,0.02
2023-01-04T04:57:41.176Z,0.04
2023-01-04T05:07:41.196Z,0.02
2023-01-04T05:17:41.246Z,0.04
2023-01-04T05:27:41.208Z,0.08
2023-01-04T05:37:41.198Z,0.08
2023-01-04T05:47:41.198Z,0.1
2023-01-04T05:57:41.210Z,0.13
2023-01-04T06:07:41.199Z,0.09
2023-01-04T06:17:41.228Z,0.14
2023-01-04T06:27:41.210Z,0.19
2023-01-04T06:37:41.250Z,0.28
2023-01-04T06:47:41.215Z,0.29
2023-01-04T06:57:41.246Z,0.3
2023-01-04T07:07:41.221Z,0.32
2023-01-04T07:17:41.229Z,0.34
2023-01-04T07:27:41.279Z,0.34
2023-01-04T07:37:41.389Z,0.47
2023-01-04T07:47:41.227Z,0.63
2023-01-04T07:57:41.357Z,0.69
2023-01-04T08:07:41.294Z,0.98
2023-01-04T08:17:41.283Z,1.39
2023-01-04T08:27:41.265Z,1.46
2023-01-04T08:37:41.308Z,1.77
2023-01-04T08:47:41.269Z,2.35
2023-01-04T08:57:41.309Z,2.24
2023-01-04T09:07:41.297Z,2.89
2023-01-04T09:27:41.300Z,2.34
2023-01-04T09:37:41.277Z,2.43
2023-01-04T09:47:41.306Z,2.54
2023-01-04T09:57:41.293Z,3.09
2023-01-04T10:07:41.321Z,3.17
2023-01-04T10:27:42.987Z,4.42
2023-01-04T10:37:41.283Z,5.23
2023-01-04T10:47:41.399Z,5.6
2023-01-04T10:57:41.303Z,6.07
2023-01-04T11:07:41.346Z,7.19
2023-01-04T11:17:41.267Z,6.92
2023-01-04T11:27:41.401Z,6.43
2023-01-04T11:37:41.304Z,5.8
2023-01-04T11:47:41.359Z,5.76
2023-01-04T11:57:41.287Z,5.85
2023-01-04T12:07:41.318Z,6.05
2023-01-04T12:17:43.249Z,6.05
2023-01-04T12:27:41.313Z,6.21
2023-01-04T12:37:41.305Z,6.28
2023-01-04T12:47:41.307Z,6.53
2023-01-04T12:57:41.283Z,6.78
2023-01-04T13:07:41.299Z,7.01
2023-01-04T13:17:41.283Z,7.16
2023-01-04T13:27:41.317Z,7.09
2023-01-04T13:37:41.304Z,7.1
2023-01-04T13:47:41.322Z,6.94
2023-01-04T13:57:41.277Z,6.83
2023-01-04T14:07:41.321Z,6.72
2023-01-04T14:17:44.565Z,6.59
2023-01-04T14:27:41.434Z,6.48
2023-01-04T14:37:41.274Z,6.32
2023-01-04T14:57:41.353Z,6.18
2023-01-04T15:07:41.286Z,5.75
2023-01-04T15:17:41.306Z,5.33
2023-01-04T15:27:42.690Z,4.91
2023-01-04T15:37:41.309Z,4.62
2023-01-04T15:47:41.325Z,4.45
2023-01-04T15:57:43.839Z,4.19
2023-01-04T16:07:41.276Z,3.86
2023-01-04T16:17:41.326Z,3.64
2023-01-04T16:27:41.339Z,3.35
2023-01-04T16:37:41.376Z,3.18
2023-01-04T16:47:41.338Z,3.06
2023-01-04T16:57:41.321Z,3.06
2023-01-04T17:07:41.299Z,3.2
2023-01-04T17:17:41.338Z,3.16
2023-01-04T17:27:41.311Z,3.09
2023-01-04T17:37:41.358Z,2.94
2023-01-04T17:47:41.332Z,2.71
2023-01-04T18:07:41.347Z,2.5
2023-01-04T18:17:41.354Z,2.43
2023-01-04T18:27:41.322Z,2.43
2023-01-04T18:37:41.324Z,2.44
2023-01-04T18:47:41.314Z,2.46
2023-01-04T18:57:41.345Z,2.33
2023-01-04T19:07:41.636Z,2.18
2023-01-04T19:17:41.361Z,2.06
2023-01-04T19:27:41.337Z,1.91
2023-01-04T19:37:41.386Z,1.82
2023-01-04T19:47:41.340Z,1.71
2023-01-04T19:57:41.399Z,1.53
2023-01-04T20:07:41.388Z,1.49
2023-01-04T20:17:41.390Z,1.52
2023-01-04T20:27:41.371Z,1.68
2023-01-04T20:37:41.402Z,1.72
2023-01-04T20:47:41.372Z,1.67
2023-01-04T20:57:41.408Z,1.78
2023-01-04T21:07:41.377Z,1.72
2023-01-04T21:17:41.451Z,1.5
2023-01-04T21:27:41.451Z,1.53
2023-01-04T21:37:41.423Z,1.44
2023-01-04T21:47:41.416Z,1.39
2023-01-04T21:57:41.411Z,1.48
2023-01-04T22:07:41.422Z,1.52
2023-01-04T22:17:41.445Z,1.46
2023-01-04T22:27:41.407Z,1.4
2023-01-04T22:37:41.458Z,1.4
2023-01-04T22:47:41.440Z,1.47
2023-01-04T22:57:41.521Z,1.59
2023-01-04T23:07:41.450Z,1.46
2023-01-04T23:17:41.457Z,1.43
2023-01-04T23:27:41.535Z,1.32
2023-01-04T23:37:41.502Z,1.1
2023-01-04T23:47:41.447Z,1.11
2023-01-04T23:57:41.477Z,1.01
